Maxwell, Nebraska
Current Conditions -  °F | °C
As of 8:53 PM on Sunday 23 Nov 2014 (Local Time) from KLBF Reporting Station
Clear Clear  
Wind Chill: 22°   Ceiling: Unl
Heat Index: 31°   Visibility: 10mi
Dew Point: 23°   Wind: 12mph
Humidity: 72%   Direction: 280°W
Pressure: 29.74"   Gusts: NA
Location:  41.08°N, 100.52°W
Report Text: KLBF 240253Z AUTO 28010KT 10SM CLR M01/M05 A2974 RMK AO2 SLP085 T10061050 51012 FZRANO $
Loading
Personal Weather Stations






























Interactive Weather Map New forecast layout! Learn more

10-Day Weather Forecast

Advertisements
Track Severe Weather on mobile